Aeroporto :







RITROVATECI SU...

 
LOGIN :

Iscrizione | Disclaimer

   EN    FR    IT 

 









Sommario :    VFR   VFR Marginale   IFR   IFR Intensivo   IFR Molto Intensivo
Visibilità : 
Base nubi : 
>= 8 km
>= 3000ft
5 / 8 km
1000 / 3000 ft
1500m / 5 km
500 / 1000 ft
800 / 1500m
200 / 500 ft
< 800m
< 200 ft
Simboli :   Temporali  Nebbia  Neve Forte  Precipitazioni Forti  Vento > 20 kt






- Altitudine del aeroporto : 787 ft
- Codice IATA : RUT


KRUT - Rutland - Southern Vermont Regional

ULTIMO METAR :
  • 220456Z AUTO 19006KT 10SM FEW055 BKN090 BKN100 01/01 A2984 RMK AO2 RAE06UPB06E27 SLP107 P0001 T00110011 400441028 FZRANO $

METARs OBSOLETI :
  • 220356Z AUTO 16004KT 8SM -RA OVC070 01/00 A2989 RMK AO2 UPB0257E45RAB11E20B45 PRESFR SLP123 P0001 T00060000 FZRANO $
  • 220256Z AUTO 13006KT 10SM SCT075 OVC095 00/00 A2995 RMK AO2 SLP144 T00000000 56026 FZRANO $

TAF KRUT
Valido dal 22 a 06 ore il 23 a 06 ore UTC


220525Z 2206/2306 16006KT P6SM VCSH OVC090 WS020/21040KT
TEMPO 2206/2209 5SM -SHRA BR OVC050
FM221400 25014KT P6SM VCSH BKN023
FM222100 29013G21KT P6SM BKN035
FM230400 29011KT P6SM SCT120



MetMap, La meteo Aeronautica in un colpo d'occhio ! - Copyright ORBIFLY Dicembre 2007 - Disclaimer

ORBIFLY MET'MAP TEAM :

Programmazione e sviluppo : Alexandra Zaïnal
Concezione e sviluppo : Baudouin d'Aumeries
Co-Programmazione e sviluppo : Marc-Olivier Méhu
Supporto tecnico e logistico : Manuel Goepfert
Aiuto per la traduzione : Arnaldo La Scala

Contatto : metmap@orbifly.com




FONTI E CREDITI :

   NOAA